CheckWX is a tool to help pilots better visualize weather data.  It is not intended as a substitute for an official pre-flight weather briefing.

22:14:47 UTC

4V0 METAR
Rangely Airport
Rangely, Colorado, USA
Current

20 mins ago

K4V0 252155Z AUTO 00000KT 10SM CLR 11/M04 A3032 RMK AO2 T01101039
Observed
Mar-25 @ 21:55 UTC
Visibility
10 SM
Flight Rules
VFR
Cloud Levels
  • Clear skies
Temperature
11°C / 52°F
Dewpoint
-4°C / 25°F
Humidity
35%
Altimeter
30.32" Hg
Pressure
1026.72 hPa
Previous

40 mins ago

K4V0 252135Z AUTO 32003KT 10SM CLR 11/M04 A3033 RMK AO2 T01071044
Observed
Mar-25 @ 21:35 UTC
Wind
  • 320° at 3 KTS
Visibility
10 SM
Flight Rules
VFR
Cloud Levels
  • Clear skies
Temperature
11°C / 52°F
Dewpoint
-4°C / 25°F
Humidity
35%
Altimeter
30.33" Hg
Pressure
1027.12 hPa
Previous

60 mins ago

K4V0 252115Z AUTO 00000KT 10SM CLR 10/M05 A3033 RMK AO2 T00991049
Observed
Mar-25 @ 21:15 UTC
Visibility
10 SM
Flight Rules
VFR
Cloud Levels
  • Clear skies
Temperature
10°C / 50°F
Dewpoint
-5°C / 23°F
Humidity
35%
Altimeter
30.33" Hg
Pressure
1027.12 hPa